sensor_id;sensor_type;location;lat;lon;timestamp;P1;durP1;ratioP1;P2;durP2;ratioP2
44578;SDS011;37422;51.402;0.016;2022-09-03T00:00:08;32.42;;;26.73;;
44578;SDS011;37422;51.402;0.016;2022-09-03T00:08:09;35.70;;;26.48;;
44578;SDS011;37422;51.402;0.016;2022-09-03T00:10:50;31.25;;;25.40;;
44578;SDS011;37422;51.402;0.016;2022-09-03T00:13:50;31.73;;;24.92;;
44578;SDS011;37422;51.402;0.016;2022-09-03T00:16:33;37.40;;;27.10;;
44578;SDS011;37422;51.402;0.016;2022-09-03T00:19:40;34.50;;;25.58;;
44578;SDS011;37422;51.402;0.016;2022-09-03T00:22:30;33.72;;;25.92;;
44578;SDS011;37422;51.402;0.016;2022-09-03T00:25:03;33.28;;;26.75;;
44578;SDS011;37422;51.402;0.016;2022-09-03T00:27:39;34.97;;;26.70;;
44578;SDS011;37422;51.402;0.016;2022-09-03T00:30:10;32.22;;;25.45;;
44578;SDS011;37422;51.402;0.016;2022-09-03T00:33:05;33.55;;;27.27;;
44578;SDS011;37422;51.402;0.016;2022-09-03T00:35:41;35.42;;;26.00;;
44578;SDS011;37422;51.402;0.016;2022-09-03T00:38:15;35.25;;;26.10;;
44578;SDS011;37422;51.402;0.016;2022-09-03T00:46:14;34.17;;;27.08;;
44578;SDS011;37422;51.402;0.016;2022-09-03T00:54:35;35.38;;;27.58;;
44578;SDS011;37422;51.402;0.016;2022-09-03T00:57:16;37.47;;;30.40;;
44578;SDS011;37422;51.402;0.016;2022-09-03T01:00:00;35.58;;;28.70;;
44578;SDS011;37422;51.402;0.016;2022-09-03T01:14:54;40.38;;;32.28;;
44578;SDS011;37422;51.402;0.016;2022-09-03T01:17:50;39.95;;;33.80;;
44578;SDS011;37422;51.402;0.016;2022-09-03T01:31:45;46.22;;;36.90;;
44578;SDS011;37422;51.402;0.016;2022-09-03T01:34:36;45.97;;;38.92;;
44578;SDS011;37422;51.402;0.016;2022-09-03T01:37:32;49.30;;;38.67;;
44578;SDS011;37422;51.402;0.016;2022-09-03T01:42:51;43.78;;;35.70;;
44578;SDS011;37422;51.402;0.016;2022-09-03T01:59:22;45.80;;;38.13;;
44578;SDS011;37422;51.402;0.016;2022-09-03T02:02:05;47.97;;;40.75;;
44578;SDS011;37422;51.402;0.016;2022-09-03T02:04:38;44.97;;;37.00;;
44578;SDS011;37422;51.402;0.016;2022-09-03T02:07:06;44.20;;;37.72;;
44578;SDS011;37422;51.402;0.016;2022-09-03T02:09:34;48.75;;;39.85;;
44578;SDS011;37422;51.402;0.016;2022-09-03T02:12:07;42.42;;;37.83;;
44578;SDS011;37422;51.402;0.016;2022-09-03T02:14:40;43.85;;;39.05;;
44578;SDS011;37422;51.402;0.016;2022-09-03T02:17:08;45.03;;;38.45;;
44578;SDS011;37422;51.402;0.016;2022-09-03T02:19:37;43.00;;;37.88;;
44578;SDS011;37422;51.402;0.016;2022-09-03T02:22:05;44.15;;;35.85;;
44578;SDS011;37422;51.402;0.016;2022-09-03T02:24:33;47.97;;;40.22;;
44578;SDS011;37422;51.402;0.016;2022-09-03T02:27:01;45.08;;;37.08;;
44578;SDS011;37422;51.402;0.016;2022-09-03T02:29:29;48.15;;;39.05;;
44578;SDS011;37422;51.402;0.016;2022-09-03T02:31:57;47.80;;;41.30;;
44578;SDS011;37422;51.402;0.016;2022-09-03T02:34:25;49.08;;;40.92;;
44578;SDS011;37422;51.402;0.016;2022-09-03T02:36:52;49.22;;;39.95;;
44578;SDS011;37422;51.402;0.016;2022-09-03T02:39:20;46.53;;;40.20;;
44578;SDS011;37422;51.402;0.016;2022-09-03T02:41:53;50.50;;;41.78;;
44578;SDS011;37422;51.402;0.016;2022-09-03T02:44:30;49.92;;;39.35;;
44578;SDS011;37422;51.402;0.016;2022-09-03T02:47:05;52.33;;;43.28;;
44578;SDS011;37422;51.402;0.016;2022-09-03T02:49:33;49.38;;;41.90;;
44578;SDS011;37422;51.402;0.016;2022-09-03T02:52:04;53.58;;;43.78;;
44578;SDS011;37422;51.402;0.016;2022-09-03T02:54:35;50.55;;;42.20;;
44578;SDS011;37422;51.402;0.016;2022-09-03T02:57:09;48.13;;;41.70;;
44578;SDS011;37422;51.402;0.016;2022-09-03T02:59:40;50.58;;;42.90;;
44578;SDS011;37422;51.402;0.016;2022-09-03T03:02:11;48.45;;;41.97;;
44578;SDS011;37422;51.402;0.016;2022-09-03T03:04:39;44.72;;;37.75;;
44578;SDS011;37422;51.402;0.016;2022-09-03T03:07:07;47.33;;;38.58;;
44578;SDS011;37422;51.402;0.016;2022-09-03T03:09:35;44.05;;;37.97;;
44578;SDS011;37422;51.402;0.016;2022-09-03T03:12:02;42.15;;;36.58;;
44578;SDS011;37422;51.402;0.016;2022-09-03T03:14:30;44.20;;;37.40;;
44578;SDS011;37422;51.402;0.016;2022-09-03T03:16:58;44.40;;;36.70;;
44578;SDS011;37422;51.402;0.016;2022-09-03T03:19:26;49.47;;;38.53;;
44578;SDS011;37422;51.402;0.016;2022-09-03T03:21:54;46.78;;;36.83;;
44578;SDS011;37422;51.402;0.016;2022-09-03T03:24:21;44.38;;;38.15;;
44578;SDS011;37422;51.402;0.016;2022-09-03T03:26:49;48.25;;;38.72;;
44578;SDS011;37422;51.402;0.016;2022-09-03T03:29:17;46.88;;;40.75;;
44578;SDS011;37422;51.402;0.016;2022-09-03T03:31:44;49.13;;;40.75;;
44578;SDS011;37422;51.402;0.016;2022-09-03T03:34:12;48.28;;;40.67;;
44578;SDS011;37422;51.402;0.016;2022-09-03T03:36:40;50.35;;;42.20;;
44578;SDS011;37422;51.402;0.016;2022-09-03T03:39:07;49.30;;;40.95;;
44578;SDS011;37422;51.402;0.016;2022-09-03T03:41:37;49.15;;;40.97;;
44578;SDS011;37422;51.402;0.016;2022-09-03T03:44:05;49.92;;;39.38;;
44578;SDS011;37422;51.402;0.016;2022-09-03T03:46:35;45.75;;;40.70;;
44578;SDS011;37422;51.402;0.016;2022-09-03T03:49:05;49.80;;;41.08;;
44578;SDS011;37422;51.402;0.016;2022-09-03T03:51:34;50.50;;;43.20;;
44578;SDS011;37422;51.402;0.016;2022-09-03T03:54:03;48.75;;;40.35;;
44578;SDS011;37422;51.402;0.016;2022-09-03T03:56:31;50.72;;;41.35;;
44578;SDS011;37422;51.402;0.016;2022-09-03T03:59:00;47.55;;;40.00;;
44578;SDS011;37422;51.402;0.016;2022-09-03T04:01:28;49.15;;;41.10;;
44578;SDS011;37422;51.402;0.016;2022-09-03T04:03:57;46.95;;;40.33;;
44578;SDS011;37422;51.402;0.016;2022-09-03T04:06:26;47.90;;;40.80;;
44578;SDS011;37422;51.402;0.016;2022-09-03T04:08:54;43.30;;;37.42;;
44578;SDS011;37422;51.402;0.016;2022-09-03T04:11:22;51.28;;;40.83;;
44578;SDS011;37422;51.402;0.016;2022-09-03T04:13:52;52.85;;;40.60;;
44578;SDS011;37422;51.402;0.016;2022-09-03T04:16:23;53.33;;;40.75;;
44578;SDS011;37422;51.402;0.016;2022-09-03T04:18:57;46.17;;;38.60;;
44578;SDS011;37422;51.402;0.016;2022-09-03T04:21:26;50.45;;;42.97;;
44578;SDS011;37422;51.402;0.016;2022-09-03T04:23:56;49.05;;;41.33;;
44578;SDS011;37422;51.402;0.016;2022-09-03T04:26:26;51.13;;;42.22;;
44578;SDS011;37422;51.402;0.016;2022-09-03T04:28:59;47.60;;;41.42;;
44578;SDS011;37422;51.402;0.016;2022-09-03T04:31:31;53.17;;;43.85;;
44578;SDS011;37422;51.402;0.016;2022-09-03T04:34:00;51.45;;;43.83;;
44578;SDS011;37422;51.402;0.016;2022-09-03T04:36:29;49.13;;;42.25;;
44578;SDS011;37422;51.402;0.016;2022-09-03T04:38:58;54.10;;;44.80;;
44578;SDS011;37422;51.402;0.016;2022-09-03T04:41:27;54.40;;;44.55;;
44578;SDS011;37422;51.402;0.016;2022-09-03T04:43:57;64.03;;;48.63;;
44578;SDS011;37422;51.402;0.016;2022-09-03T04:46:26;55.33;;;45.20;;
44578;SDS011;37422;51.402;0.016;2022-09-03T04:48:58;56.58;;;48.90;;
44578;SDS011;37422;51.402;0.016;2022-09-03T04:51:26;56.22;;;47.60;;
44578;SDS011;37422;51.402;0.016;2022-09-03T04:53:56;58.92;;;47.53;;
44578;SDS011;37422;51.402;0.016;2022-09-03T04:56:27;58.33;;;51.00;;
44578;SDS011;37422;51.402;0.016;2022-09-03T04:58:57;63.15;;;51.78;;
44578;SDS011;37422;51.402;0.016;2022-09-03T05:01:28;61.90;;;49.83;;
44578;SDS011;37422;51.402;0.016;2022-09-03T05:03:58;63.10;;;47.80;;
44578;SDS011;37422;51.402;0.016;2022-09-03T05:06:27;56.63;;;46.95;;
44578;SDS011;37422;51.402;0.016;2022-09-03T05:08:56;53.20;;;45.33;;
44578;SDS011;37422;51.402;0.016;2022-09-03T05:11:25;57.05;;;46.70;;
44578;SDS011;37422;51.402;0.016;2022-09-03T05:13:55;58.17;;;46.72;;
44578;SDS011;37422;51.402;0.016;2022-09-03T05:18:55;77.40;;;48.72;;
44578;SDS011;37422;51.402;0.016;2022-09-03T05:21:25;57.47;;;45.20;;
44578;SDS011;37422;51.402;0.016;2022-09-03T05:23:54;56.40;;;44.72;;
44578;SDS011;37422;51.402;0.016;2022-09-03T05:26:23;57.75;;;45.92;;
44578;SDS011;37422;51.402;0.016;2022-09-03T05:28:53;54.33;;;47.15;;
44578;SDS011;37422;51.402;0.016;2022-09-03T05:33:53;52.78;;;44.67;;
44578;SDS011;37422;51.402;0.016;2022-09-03T05:36:27;53.30;;;44.95;;
44578;SDS011;37422;51.402;0.016;2022-09-03T05:38:57;58.22;;;45.47;;
44578;SDS011;37422;51.402;0.016;2022-09-03T05:41:26;57.95;;;48.05;;
44578;SDS011;37422;51.402;0.016;2022-09-03T05:43:59;55.38;;;44.28;;
44578;SDS011;37422;51.402;0.016;2022-09-03T05:46:29;58.08;;;46.05;;
44578;SDS011;37422;51.402;0.016;2022-09-03T05:48:59;60.10;;;50.92;;
44578;SDS011;37422;51.402;0.016;2022-09-03T05:51:28;62.22;;;46.33;;
44578;SDS011;37422;51.402;0.016;2022-09-03T05:53:57;62.70;;;46.13;;
44578;SDS011;37422;51.402;0.016;2022-09-03T05:56:26;55.95;;;49.30;;
44578;SDS011;37422;51.402;0.016;2022-09-03T06:01:29;56.50;;;46.72;;
44578;SDS011;37422;51.402;0.016;2022-09-03T06:04:05;61.25;;;46.83;;
44578;SDS011;37422;51.402;0.016;2022-09-03T06:06:44;60.08;;;47.33;;
44578;SDS011;37422;51.402;0.016;2022-09-03T06:09:14;58.15;;;46.38;;
44578;SDS011;37422;51.402;0.016;2022-09-03T06:11:46;59.40;;;49.08;;
44578;SDS011;37422;51.402;0.016;2022-09-03T06:14:18;71.85;;;55.45;;
44578;SDS011;37422;51.402;0.016;2022-09-03T06:16:47;65.47;;;54.88;;
44578;SDS011;37422;51.402;0.016;2022-09-03T06:19:16;68.75;;;57.67;;
44578;SDS011;37422;51.402;0.016;2022-09-03T06:21:44;63.70;;;54.33;;
44578;SDS011;37422;51.402;0.016;2022-09-03T06:24:16;68.88;;;54.80;;
44578;SDS011;37422;51.402;0.016;2022-09-03T06:26:52;69.18;;;55.85;;
44578;SDS011;37422;51.402;0.016;2022-09-03T06:29:20;65.45;;;54.17;;
44578;SDS011;37422;51.402;0.016;2022-09-03T06:31:47;63.33;;;51.40;;
44578;SDS011;37422;51.402;0.016;2022-09-03T06:34:17;60.92;;;50.95;;
44578;SDS011;37422;51.402;0.016;2022-09-03T06:36:45;63.88;;;50.60;;
44578;SDS011;37422;51.402;0.016;2022-09-03T06:39:13;62.50;;;51.42;;
44578;SDS011;37422;51.402;0.016;2022-09-03T06:41:40;57.67;;;48.88;;
44578;SDS011;37422;51.402;0.016;2022-09-03T06:44:08;56.70;;;48.00;;
44578;SDS011;37422;51.402;0.016;2022-09-03T06:46:39;53.55;;;45.70;;
44578;SDS011;37422;51.402;0.016;2022-09-03T06:49:09;54.90;;;45.95;;
44578;SDS011;37422;51.402;0.016;2022-09-03T06:51:42;55.78;;;45.90;;
44578;SDS011;37422;51.402;0.016;2022-09-03T06:54:16;53.22;;;44.58;;
44578;SDS011;37422;51.402;0.016;2022-09-03T06:56:46;54.17;;;44.00;;
44578;SDS011;37422;51.402;0.016;2022-09-03T06:59:17;50.30;;;44.65;;
44578;SDS011;37422;51.402;0.016;2022-09-03T07:01:48;48.75;;;42.85;;
44578;SDS011;37422;51.402;0.016;2022-09-03T07:04:16;47.05;;;41.90;;
44578;SDS011;37422;51.402;0.016;2022-09-03T07:06:46;47.83;;;41.33;;
44578;SDS011;37422;51.402;0.016;2022-09-03T07:09:14;45.25;;;40.30;;
44578;SDS011;37422;51.402;0.016;2022-09-03T07:11:44;49.33;;;40.72;;
44578;SDS011;37422;51.402;0.016;2022-09-03T07:14:16;45.50;;;40.35;;
44578;SDS011;37422;51.402;0.016;2022-09-03T07:16:45;43.15;;;38.40;;
44578;SDS011;37422;51.402;0.016;2022-09-03T07:19:14;43.00;;;37.37;;
44578;SDS011;37422;51.402;0.016;2022-09-03T07:21:43;43.53;;;38.60;;
44578;SDS011;37422;51.402;0.016;2022-09-03T07:24:16;44.63;;;36.53;;
44578;SDS011;37422;51.402;0.016;2022-09-03T07:26:46;40.83;;;36.40;;
44578;SDS011;37422;51.402;0.016;2022-09-03T07:29:15;41.53;;;33.38;;
44578;SDS011;37422;51.402;0.016;2022-09-03T07:31:47;36.45;;;32.35;;
44578;SDS011;37422;51.402;0.016;2022-09-03T07:34:20;34.08;;;30.25;;
44578;SDS011;37422;51.402;0.016;2022-09-03T07:36:51;36.58;;;29.88;;
44578;SDS011;37422;51.402;0.016;2022-09-03T07:39:20;32.47;;;26.63;;
44578;SDS011;37422;51.402;0.016;2022-09-03T07:41:47;31.27;;;24.85;;
44578;SDS011;37422;51.402;0.016;2022-09-03T07:44:16;27.77;;;21.42;;
44578;SDS011;37422;51.402;0.016;2022-09-03T07:46:48;27.10;;;21.48;;
44578;SDS011;37422;51.402;0.016;2022-09-03T07:49:18;24.50;;;18.00;;
44578;SDS011;37422;51.402;0.016;2022-09-03T07:51:58;23.13;;;13.95;;
44578;SDS011;37422;51.402;0.016;2022-09-03T07:54:25;24.20;;;14.07;;
44578;SDS011;37422;51.402;0.016;2022-09-03T07:56:53;19.85;;;13.32;;
44578;SDS011;37422;51.402;0.016;2022-09-03T07:59:22;17.95;;;12.07;;
44578;SDS011;37422;51.402;0.016;2022-09-03T08:01:50;18.60;;;11.57;;
44578;SDS011;37422;51.402;0.016;2022-09-03T08:04:18;18.02;;;11.63;;
44578;SDS011;37422;51.402;0.016;2022-09-03T08:06:47;15.70;;;11.25;;
44578;SDS011;37422;51.402;0.016;2022-09-03T08:09:15;20.05;;;10.73;;
44578;SDS011;37422;51.402;0.016;2022-09-03T08:11:43;19.05;;;12.25;;
44578;SDS011;37422;51.402;0.016;2022-09-03T08:14:22;18.47;;;11.67;;
44578;SDS011;37422;51.402;0.016;2022-09-03T08:16:50;21.33;;;12.10;;
44578;SDS011;37422;51.402;0.016;2022-09-03T08:19:18;20.50;;;12.32;;
44578;SDS011;37422;51.402;0.016;2022-09-03T08:21:46;19.05;;;12.30;;
44578;SDS011;37422;51.402;0.016;2022-09-03T08:24:17;19.30;;;11.73;;
44578;SDS011;37422;51.402;0.016;2022-09-03T08:26:47;19.27;;;11.20;;
44578;SDS011;37422;51.402;0.016;2022-09-03T08:29:18;17.13;;;10.23;;
44578;SDS011;37422;51.402;0.016;2022-09-03T08:31:47;15.00;;;9.73;;
44578;SDS011;37422;51.402;0.016;2022-09-03T08:34:15;15.60;;;10.10;;
44578;SDS011;37422;51.402;0.016;2022-09-03T08:36:44;16.88;;;10.25;;
44578;SDS011;37422;51.402;0.016;2022-09-03T08:39:13;15.67;;;10.37;;
44578;SDS011;37422;51.402;0.016;2022-09-03T08:44:29;17.45;;;10.77;;
44578;SDS011;37422;51.402;0.016;2022-09-03T08:49:53;14.85;;;9.07;;
44578;SDS011;37422;51.402;0.016;2022-09-03T08:52:33;15.07;;;9.30;;
44578;SDS011;37422;51.402;0.016;2022-09-03T08:55:41;17.55;;;10.77;;
44578;SDS011;37422;51.402;0.016;2022-09-03T08:58:20;15.20;;;10.18;;
44578;SDS011;37422;51.402;0.016;2022-09-03T09:01:41;19.27;;;10.82;;
44578;SDS011;37422;51.402;0.016;2022-09-03T09:07:09;19.25;;;9.68;;
44578;SDS011;37422;51.402;0.016;2022-09-03T09:21:12;16.27;;;9.88;;
44578;SDS011;37422;51.402;0.016;2022-09-03T09:23:53;11.75;;;6.97;;
44578;SDS011;37422;51.402;0.016;2022-09-03T09:26:25;16.80;;;9.77;;
44578;SDS011;37422;51.402;0.016;2022-09-03T09:29:00;13.70;;;9.30;;
44578;SDS011;37422;51.402;0.016;2022-09-03T09:31:36;12.38;;;7.78;;
44578;SDS011;37422;51.402;0.016;2022-09-03T09:34:06;13.32;;;7.95;;
44578;SDS011;37422;51.402;0.016;2022-09-03T09:36:36;14.43;;;7.75;;
44578;SDS011;37422;51.402;0.016;2022-09-03T09:39:18;12.20;;;7.18;;
44578;SDS011;37422;51.402;0.016;2022-09-03T09:42:00;11.60;;;7.60;;
44578;SDS011;37422;51.402;0.016;2022-09-03T09:44:37;15.43;;;7.93;;
44578;SDS011;37422;51.402;0.016;2022-09-03T09:47:06;13.18;;;7.43;;
44578;SDS011;37422;51.402;0.016;2022-09-03T09:49:55;11.48;;;7.22;;
44578;SDS011;37422;51.402;0.016;2022-09-03T09:52:27;12.23;;;6.88;;
44578;SDS011;37422;51.402;0.016;2022-09-03T09:55:08;12.73;;;6.55;;
44578;SDS011;37422;51.402;0.016;2022-09-03T09:57:40;10.75;;;6.18;;
44578;SDS011;37422;51.402;0.016;2022-09-03T10:00:09;10.43;;;6.38;;
44578;SDS011;37422;51.402;0.016;2022-09-03T10:02:46;11.63;;;6.93;;
44578;SDS011;37422;51.402;0.016;2022-09-03T10:05:23;11.65;;;7.22;;
44578;SDS011;37422;51.402;0.016;2022-09-03T10:08:00;14.77;;;8.00;;
44578;SDS011;37422;51.402;0.016;2022-09-03T10:10:32;11.68;;;6.97;;
44578;SDS011;37422;51.402;0.016;2022-09-03T10:13:05;9.90;;;6.68;;
44578;SDS011;37422;51.402;0.016;2022-09-03T10:15:57;10.70;;;5.97;;
44578;SDS011;37422;51.402;0.016;2022-09-03T10:26:54;9.80;;;5.97;;
44578;SDS011;37422;51.402;0.016;2022-09-03T10:29:24;10.02;;;6.45;;
44578;SDS011;37422;51.402;0.016;2022-09-03T10:37:20;9.10;;;5.47;;
44578;SDS011;37422;51.402;0.016;2022-09-03T10:40:11;9.00;;;5.82;;
44578;SDS011;37422;51.402;0.016;2022-09-03T10:51:19;9.32;;;4.65;;
44578;SDS011;37422;51.402;0.016;2022-09-03T10:54:18;10.20;;;5.45;;
44578;SDS011;37422;51.402;0.016;2022-09-03T11:02:27;7.10;;;4.35;;
44578;SDS011;37422;51.402;0.016;2022-09-03T11:07:30;5.55;;;4.10;;
44578;SDS011;37422;51.402;0.016;2022-09-03T11:10:22;8.25;;;3.88;;
44578;SDS011;37422;51.402;0.016;2022-09-03T11:16:05;7.40;;;4.18;;
44578;SDS011;37422;51.402;0.016;2022-09-03T11:18:46;12.05;;;4.38;;
44578;SDS011;37422;51.402;0.016;2022-09-03T11:21:29;6.50;;;3.88;;
44578;SDS011;37422;51.402;0.016;2022-09-03T11:38:17;4.97;;;3.42;;
44578;SDS011;37422;51.402;0.016;2022-09-03T11:43:42;7.78;;;3.80;;
44578;SDS011;37422;51.402;0.016;2022-09-03T11:46:12;5.15;;;3.08;;
44578;SDS011;37422;51.402;0.016;2022-09-03T11:48:54;6.90;;;3.63;;
44578;SDS011;37422;51.402;0.016;2022-09-03T11:51:39;3.75;;;3.10;;
44578;SDS011;37422;51.402;0.016;2022-09-03T11:56:46;4.80;;;3.67;;
44578;SDS011;37422;51.402;0.016;2022-09-03T11:59:17;5.47;;;3.25;;
44578;SDS011;37422;51.402;0.016;2022-09-03T12:01:50;6.70;;;3.90;;
44578;SDS011;37422;51.402;0.016;2022-09-03T12:04:30;5.82;;;3.22;;
44578;SDS011;37422;51.402;0.016;2022-09-03T12:07:56;8.17;;;3.90;;
44578;SDS011;37422;51.402;0.016;2022-09-03T12:18:38;4.78;;;3.03;;
44578;SDS011;37422;51.402;0.016;2022-09-03T12:21:08;6.38;;;3.63;;
44578;SDS011;37422;51.402;0.016;2022-09-03T12:23:41;7.43;;;3.70;;
44578;SDS011;37422;51.402;0.016;2022-09-03T12:26:12;5.32;;;3.33;;
44578;SDS011;37422;51.402;0.016;2022-09-03T12:28:55;5.75;;;3.90;;
44578;SDS011;37422;51.402;0.016;2022-09-03T12:31:28;5.15;;;3.15;;
44578;SDS011;37422;51.402;0.016;2022-09-03T12:34:11;7.85;;;4.10;;
44578;SDS011;37422;51.402;0.016;2022-09-03T12:36:49;5.78;;;4.25;;
44578;SDS011;37422;51.402;0.016;2022-09-03T12:39:26;6.25;;;3.63;;
44578;SDS011;37422;51.402;0.016;2022-09-03T12:42:36;9.45;;;3.65;;
44578;SDS011;37422;51.402;0.016;2022-09-03T12:45:08;7.07;;;3.88;;
44578;SDS011;37422;51.402;0.016;2022-09-03T12:47:45;7.35;;;3.60;;
44578;SDS011;37422;51.402;0.016;2022-09-03T12:50:16;7.32;;;3.45;;
44578;SDS011;37422;51.402;0.016;2022-09-03T12:58:16;5.03;;;2.83;;
44578;SDS011;37422;51.402;0.016;2022-09-03T13:00:52;6.55;;;2.35;;
44578;SDS011;37422;51.402;0.016;2022-09-03T13:03:30;4.55;;;2.63;;
44578;SDS011;37422;51.402;0.016;2022-09-03T13:06:09;7.63;;;3.40;;
44578;SDS011;37422;51.402;0.016;2022-09-03T13:09:01;5.57;;;2.95;;
44578;SDS011;37422;51.402;0.016;2022-09-03T13:11:33;3.90;;;2.90;;
44578;SDS011;37422;51.402;0.016;2022-09-03T13:14:07;3.78;;;2.97;;
44578;SDS011;37422;51.402;0.016;2022-09-03T13:24:55;4.63;;;3.28;;
44578;SDS011;37422;51.402;0.016;2022-09-03T13:30:08;4.00;;;3.27;;
44578;SDS011;37422;51.402;0.016;2022-09-03T13:38:04;4.53;;;3.25;;
44578;SDS011;37422;51.402;0.016;2022-09-03T13:43:31;6.03;;;3.67;;
44578;SDS011;37422;51.402;0.016;2022-09-03T13:46:10;5.30;;;3.35;;
44578;SDS011;37422;51.402;0.016;2022-09-03T13:48:44;5.85;;;3.53;;
44578;SDS011;37422;51.402;0.016;2022-09-03T13:51:48;5.78;;;3.22;;
44578;SDS011;37422;51.402;0.016;2022-09-03T13:54:26;4.72;;;3.38;;
44578;SDS011;37422;51.402;0.016;2022-09-03T13:57:20;7.20;;;2.78;;
44578;SDS011;37422;51.402;0.016;2022-09-03T14:00:10;4.82;;;3.80;;
44578;SDS011;37422;51.402;0.016;2022-09-03T14:05:33;5.53;;;4.10;;
44578;SDS011;37422;51.402;0.016;2022-09-03T14:08:24;7.03;;;3.58;;
44578;SDS011;37422;51.402;0.016;2022-09-03T14:11:11;8.73;;;4.47;;
44578;SDS011;37422;51.402;0.016;2022-09-03T14:17:18;7.40;;;5.00;;
44578;SDS011;37422;51.402;0.016;2022-09-03T14:19:59;9.52;;;4.35;;
44578;SDS011;37422;51.402;0.016;2022-09-03T14:25:25;9.82;;;5.40;;
44578;SDS011;37422;51.402;0.016;2022-09-03T14:27:54;8.85;;;5.07;;
44578;SDS011;37422;51.402;0.016;2022-09-03T15:01:34;8.10;;;4.25;;
44578;SDS011;37422;51.402;0.016;2022-09-03T15:10:14;6.55;;;4.10;;
44578;SDS011;37422;51.402;0.016;2022-09-03T15:13:05;4.90;;;3.38;;
44578;SDS011;37422;51.402;0.016;2022-09-03T15:21:05;8.73;;;4.55;;
44578;SDS011;37422;51.402;0.016;2022-09-03T15:26:55;7.50;;;4.30;;
44578;SDS011;37422;51.402;0.016;2022-09-03T15:32:44;10.73;;;5.47;;
44578;SDS011;37422;51.402;0.016;2022-09-03T15:35:30;10.25;;;5.38;;
44578;SDS011;37422;51.402;0.016;2022-09-03T15:40:59;10.90;;;6.28;;
44578;SDS011;37422;51.402;0.016;2022-09-03T15:43:34;15.85;;;6.30;;
44578;SDS011;37422;51.402;0.016;2022-09-03T15:46:08;13.40;;;6.32;;
44578;SDS011;37422;51.402;0.016;2022-09-03T15:48:47;11.60;;;6.47;;
44578;SDS011;37422;51.402;0.016;2022-09-03T15:57:16;12.73;;;5.47;;
44578;SDS011;37422;51.402;0.016;2022-09-03T16:00:11;22.17;;;7.65;;
44578;SDS011;37422;51.402;0.016;2022-09-03T16:05:27;15.38;;;6.43;;
44578;SDS011;37422;51.402;0.016;2022-09-03T16:08:16;12.73;;;7.45;;
44578;SDS011;37422;51.402;0.016;2022-09-03T16:21:43;14.25;;;6.63;;
44578;SDS011;37422;51.402;0.016;2022-09-03T16:24:17;12.75;;;6.68;;
44578;SDS011;37422;51.402;0.016;2022-09-03T16:34:53;11.45;;;7.03;;
44578;SDS011;37422;51.402;0.016;2022-09-03T16:46:47;12.15;;;6.53;;
44578;SDS011;37422;51.402;0.016;2022-09-03T16:50:03;13.75;;;6.72;;
44578;SDS011;37422;51.402;0.016;2022-09-03T17:09:37;13.85;;;6.97;;
44578;SDS011;37422;51.402;0.016;2022-09-03T17:23:41;13.48;;;7.90;;
44578;SDS011;37422;51.402;0.016;2022-09-03T17:34:54;12.13;;;6.65;;
44578;SDS011;37422;51.402;0.016;2022-09-03T17:40:35;13.52;;;7.15;;
44578;SDS011;37422;51.402;0.016;2022-09-03T17:48:47;14.75;;;7.47;;
44578;SDS011;37422;51.402;0.016;2022-09-03T17:56:29;14.45;;;7.60;;
44578;SDS011;37422;51.402;0.016;2022-09-03T18:04:57;16.08;;;8.45;;
44578;SDS011;37422;51.402;0.016;2022-09-03T18:10:38;16.58;;;9.57;;
44578;SDS011;37422;51.402;0.016;2022-09-03T18:13:22;16.50;;;9.13;;
44578;SDS011;37422;51.402;0.016;2022-09-03T18:19:11;15.18;;;8.73;;
44578;SDS011;37422;51.402;0.016;2022-09-03T18:21:57;18.23;;;8.98;;
44578;SDS011;37422;51.402;0.016;2022-09-03T18:24:51;22.17;;;9.57;;
44578;SDS011;37422;51.402;0.016;2022-09-03T18:27:46;18.05;;;10.00;;
44578;SDS011;37422;51.402;0.016;2022-09-03T18:30:38;21.15;;;10.93;;
44578;SDS011;37422;51.402;0.016;2022-09-03T18:33:24;20.10;;;10.55;;
44578;SDS011;37422;51.402;0.016;2022-09-03T18:36:11;17.92;;;8.95;;
44578;SDS011;37422;51.402;0.016;2022-09-03T18:39:06;18.10;;;9.82;;
44578;SDS011;37422;51.402;0.016;2022-09-03T18:42:05;19.70;;;10.07;;
44578;SDS011;37422;51.402;0.016;2022-09-03T18:45:06;20.80;;;11.00;;
44578;SDS011;37422;51.402;0.016;2022-09-03T18:54:10;17.33;;;9.63;;
44578;SDS011;37422;51.402;0.016;2022-09-03T18:57:31;19.50;;;9.75;;
44578;SDS011;37422;51.402;0.016;2022-09-03T19:00:29;16.17;;;9.15;;
44578;SDS011;37422;51.402;0.016;2022-09-03T19:12:15;22.45;;;10.00;;
44578;SDS011;37422;51.402;0.016;2022-09-03T19:15:26;28.25;;;13.98;;
44578;SDS011;37422;51.402;0.016;2022-09-03T19:24:00;27.35;;;14.70;;
44578;SDS011;37422;51.402;0.016;2022-09-03T19:30:15;25.70;;;14.38;;
44578;SDS011;37422;51.402;0.016;2022-09-03T19:33:26;28.33;;;15.00;;
44578;SDS011;37422;51.402;0.016;2022-09-03T19:36:28;25.63;;;12.77;;
44578;SDS011;37422;51.402;0.016;2022-09-03T19:42:51;18.88;;;10.50;;
44578;SDS011;37422;51.402;0.016;2022-09-03T19:45:55;21.73;;;10.05;;
44578;SDS011;37422;51.402;0.016;2022-09-03T19:49:12;22.02;;;11.05;;
44578;SDS011;37422;51.402;0.016;2022-09-03T19:52:24;18.83;;;9.85;;
44578;SDS011;37422;51.402;0.016;2022-09-03T19:55:29;21.95;;;9.43;;
44578;SDS011;37422;51.402;0.016;2022-09-03T19:58:20;19.42;;;9.52;;
44578;SDS011;37422;51.402;0.016;2022-09-03T20:01:10;19.63;;;9.57;;
44578;SDS011;37422;51.402;0.016;2022-09-03T20:04:03;19.77;;;9.15;;
44578;SDS011;37422;51.402;0.016;2022-09-03T20:06:57;19.70;;;9.88;;
44578;SDS011;37422;51.402;0.016;2022-09-03T20:09:44;18.83;;;9.05;;
44578;SDS011;37422;51.402;0.016;2022-09-03T20:12:33;18.38;;;9.30;;
44578;SDS011;37422;51.402;0.016;2022-09-03T20:15:05;19.73;;;9.68;;
44578;SDS011;37422;51.402;0.016;2022-09-03T20:17:41;16.60;;;9.80;;
44578;SDS011;37422;51.402;0.016;2022-09-03T20:31:15;20.45;;;10.52;;
44578;SDS011;37422;51.402;0.016;2022-09-03T20:33:49;22.60;;;12.52;;
44578;SDS011;37422;51.402;0.016;2022-09-03T20:36:51;21.50;;;11.88;;
44578;SDS011;37422;51.402;0.016;2022-09-03T20:40:02;20.38;;;12.13;;
44578;SDS011;37422;51.402;0.016;2022-09-03T20:42:57;21.63;;;11.15;;
44578;SDS011;37422;51.402;0.016;2022-09-03T20:48:30;20.55;;;10.93;;
44578;SDS011;37422;51.402;0.016;2022-09-03T20:51:16;23.75;;;12.10;;
44578;SDS011;37422;51.402;0.016;2022-09-03T20:56:32;26.77;;;12.73;;
44578;SDS011;37422;51.402;0.016;2022-09-03T21:02:15;21.33;;;12.48;;
44578;SDS011;37422;51.402;0.016;2022-09-03T21:19:08;25.63;;;14.05;;
44578;SDS011;37422;51.402;0.016;2022-09-03T21:24:53;24.98;;;14.13;;
44578;SDS011;37422;51.402;0.016;2022-09-03T21:27:36;22.27;;;12.88;;
44578;SDS011;37422;51.402;0.016;2022-09-03T21:30:19;22.23;;;11.45;;
44578;SDS011;37422;51.402;0.016;2022-09-03T21:35:48;23.83;;;13.25;;
44578;SDS011;37422;51.402;0.016;2022-09-03T21:38:21;20.53;;;11.77;;
44578;SDS011;37422;51.402;0.016;2022-09-03T21:43:37;20.60;;;10.93;;
44578;SDS011;37422;51.402;0.016;2022-09-03T21:46:32;24.27;;;11.35;;
44578;SDS011;37422;51.402;0.016;2022-09-03T21:49:07;24.40;;;11.77;;
44578;SDS011;37422;51.402;0.016;2022-09-03T21:51:42;23.40;;;11.93;;
44578;SDS011;37422;51.402;0.016;2022-09-03T21:56:57;20.73;;;11.77;;
44578;SDS011;37422;51.402;0.016;2022-09-03T22:02:25;20.90;;;13.30;;
44578;SDS011;37422;51.402;0.016;2022-09-03T22:04:55;22.88;;;11.35;;
44578;SDS011;37422;51.402;0.016;2022-09-03T22:18:29;21.30;;;12.02;;
44578;SDS011;37422;51.402;0.016;2022-09-03T22:37:43;21.92;;;13.25;;